Time;durP1;ratioP1;P1;durP2;ratioP2;P2;SDS_P1;SDS_P2;PMS_P1;PMS_P2;Temp;Humidity;BMP_temperature;BMP_pressure;BME280_temperature;BME280_humidity;BME280_pressure;Samples;Min_cycle;Max_cycle;Signal;HPM_P1;HPM_P2
2022/05/08 00:00:13;;;;;;;13.05;11.85;;;10.60;99.90;;;;;;5054005;28;20168;-77
2022/05/08 00:02:40;;;;;;;11.80;10.80;;;10.70;99.90;;;;;;5055434;28;20708;-76
2022/05/08 00:05:07;;;;;;;12.07;11.07;;;10.80;99.90;;;;;;5051487;28;20208;-77
2022/05/08 00:07:32;;;;;;;12.50;11.40;;;10.80;99.90;;;;;;5060285;28;20199;-78
2022/05/08 00:09:58;;;;;;;11.80;10.80;;;10.70;99.90;;;;;;5054137;28;20176;-77
2022/05/08 00:12:24;;;;;;;12.25;11.25;;;10.70;99.90;;;;;;5058270;28;20546;-77
2022/05/08 00:14:50;;;;;;;13.15;11.43;;;10.70;99.90;;;;;;5056742;28;20199;-77
2022/05/08 00:17:15;;;;;;;12.32;11.13;;;10.80;99.90;;;;;;5058098;28;20191;-78
2022/05/08 00:19:43;;;;;;;10.55;9.75;;;10.80;99.90;;;;;;5058690;28;20172;-83
2022/05/08 00:22:09;;;;;;;11.35;10.35;;;10.80;99.90;;;;;;5057498;28;20168;-77
2022/05/08 00:24:35;;;;;;;11.70;10.70;;;10.80;99.90;;;;;;5058545;28;20183;-78
2022/05/08 00:27:00;;;;;;;12.38;11.35;;;10.70;99.90;;;;;;5055752;28;20255;-78
2022/05/08 00:29:26;;;;;;;11.63;10.55;;;10.70;99.90;;;;;;5059470;28;20184;-76
2022/05/08 00:31:52;;;;;;;12.27;11.13;;;10.70;99.90;;;;;;5057726;28;20176;-78
2022/05/08 00:34:17;;;;;;;12.02;10.93;;;10.70;99.90;;;;;;5055444;28;20197;-78
2022/05/08 00:36:43;;;;;;;12.68;11.48;;;10.70;99.90;;;;;;5060747;28;20232;-77
2022/05/08 00:39:09;;;;;;;12.98;11.88;;;10.70;99.90;;;;;;5057092;28;20225;-77
2022/05/08 00:41:34;;;;;;;12.10;10.90;;;10.70;99.90;;;;;;5056287;28;20211;-75
2022/05/08 00:44:00;;;;;;;11.25;10.35;;;10.70;99.90;;;;;;5073020;28;20309;-78
2022/05/08 00:46:27;;;;;;;13.02;10.70;;;10.70;99.90;;;;;;5058710;28;20195;-78
2022/05/08 00:48:53;;;;;;;12.75;11.30;;;10.70;99.90;;;;;;5059310;28;20175;-77
2022/05/08 00:51:19;;;;;;;13.00;11.90;;;10.70;99.90;;;;;;5055764;28;20214;-77
2022/05/08 00:53:51;;;;;;;13.88;12.52;;;10.60;99.90;;;;;;5058453;28;20704;-76
2022/05/08 00:56:18;;;;;;;13.93;12.73;;;10.60;99.90;;;;;;5053790;28;20230;-78
2022/05/08 00:58:46;;;;;;;14.18;12.88;;;10.60;99.90;;;;;;5056756;28;20282;-78
2022/05/08 01:01:13;;;;;;;13.30;12.13;;;10.60;99.90;;;;;;5057832;28;20187;-78
2022/05/08 01:03:39;;;;;;;14.07;12.88;;;10.60;99.90;;;;;;5056803;28;20203;-78
2022/05/08 01:06:09;;;;;;;14.13;12.80;;;10.60;99.90;;;;;;5037751;28;20191;-78
2022/05/08 01:08:38;;;;;;;13.18;11.85;;;10.60;99.90;;;;;;5058226;28;20183;-78
2022/05/08 01:11:05;;;;;;;12.93;11.73;;;10.60;99.90;;;;;;5056271;28;20183;-77
2022/05/08 01:13:30;;;;;;;13.05;11.95;;;10.60;99.90;;;;;;5052797;28;20208;-77
2022/05/08 01:15:56;;;;;;;14.63;12.75;;;10.60;99.90;;;;;;5053252;28;20187;-77
2022/05/08 01:18:22;;;;;;;12.55;11.45;;;10.60;99.90;;;;;;5055880;28;20301;-81
2022/05/08 01:20:48;;;;;;;13.40;12.30;;;10.60;99.90;;;;;;5057454;28;20225;-77
2022/05/08 01:23:19;;;;;;;12.57;11.50;;;10.60;99.90;;;;;;5055381;28;20278;-77
2022/05/08 01:25:47;;;;;;;13.65;12.35;;;10.50;99.90;;;;;;5057973;28;20187;-77
2022/05/08 01:28:14;;;;;;;14.45;12.85;;;10.50;99.90;;;;;;5039200;28;20176;-77
2022/05/08 01:30:44;;;;;;;15.45;14.05;;;10.50;99.90;;;;;;5058109;28;20203;-77
2022/05/08 01:33:10;;;;;;;14.40;13.10;;;10.50;99.90;;;;;;5052949;28;20584;-77
2022/05/08 01:35:37;;;;;;;14.10;12.90;;;10.40;99.90;;;;;;5054405;28;20172;-78
2022/05/08 01:38:06;;;;;;;14.80;13.48;;;10.40;99.90;;;;;;5054669;28;20740;-77
2022/05/08 01:40:32;;;;;;;14.60;13.20;;;10.40;99.90;;;;;;5055454;28;20222;-78
2022/05/08 01:42:59;;;;;;;14.48;13.18;;;10.40;99.90;;;;;;5052831;28;20171;-77
2022/05/08 01:45:24;;;;;;;17.83;13.38;;;10.30;99.90;;;;;;5052800;28;20176;-77
2022/05/08 01:50:35;;;;;;;15.77;14.20;;;10.20;99.90;;;;;;5052630;28;20194;-77
2022/05/08 01:53:01;;;;;;;15.02;13.73;;;10.30;99.90;;;;;;5054733;28;20191;-78
2022/05/08 01:55:27;;;;;;;14.60;13.32;;;10.20;99.90;;;;;;5054494;28;20172;-75
2022/05/08 01:57:55;;;;;;;15.15;13.73;;;10.20;99.90;;;;;;5057233;28;20215;-76
2022/05/08 02:00:25;;;;;;;14.48;13.27;;;10.20;99.90;;;;;;5055125;28;20188;-77
2022/05/08 02:02:51;;;;;;;14.43;12.75;;;10.20;99.90;;;;;;5054991;28;20180;-77
2022/05/08 02:05:18;;;;;;;14.32;13.02;;;10.20;99.90;;;;;;5054460;28;20720;-77
2022/05/08 02:07:45;;;;;;;14.57;13.27;;;10.10;99.90;;;;;;5055231;28;20693;-78
2022/05/08 02:10:11;;;;;;;12.93;11.80;;;10.10;99.90;;;;;;5035087;28;20629;-78
2022/05/08 02:12:37;;;;;;;14.30;13.07;;;10.10;99.90;;;;;;5056388;28;20168;-77
2022/05/08 02:15:04;;;;;;;13.95;12.65;;;10.10;99.90;;;;;;5052962;28;20314;-76
2022/05/08 02:17:30;;;;;;;12.85;11.65;;;10.20;99.90;;;;;;5054307;28;20223;-77
2022/05/08 02:19:56;;;;;;;12.27;11.07;;;10.20;99.90;;;;;;5039784;28;20171;-76
2022/05/08 02:22:21;;;;;;;12.82;11.63;;;10.20;99.90;;;;;;5054816;28;20172;-76
2022/05/08 02:24:47;;;;;;;11.93;10.75;;;10.20;99.90;;;;;;5055533;28;20184;-77
2022/05/08 02:27:12;;;;;;;13.00;11.85;;;10.10;99.90;;;;;;5054229;28;20198;-77
2022/05/08 02:29:38;;;;;;;13.75;12.48;;;10.10;99.90;;;;;;5056828;28;20258;-77
2022/05/08 02:32:04;;;;;;;12.30;11.27;;;10.10;99.90;;;;;;5054548;28;20188;-77
2022/05/08 02:34:30;;;;;;;11.77;10.70;;;10.10;99.90;;;;;;5033167;28;20218;-76
2022/05/08 02:36:55;;;;;;;13.40;12.10;;;10.10;99.90;;;;;;5054431;28;20195;-77
2022/05/08 02:39:21;;;;;;;13.10;11.95;;;10.10;99.90;;;;;;5054743;28;20167;-77
2022/05/08 02:41:46;;;;;;;12.73;11.65;;;10.00;99.90;;;;;;5048217;28;20310;-77
2022/05/08 02:44:12;;;;;;;12.05;10.98;;;10.00;99.90;;;;;;5053943;28;20654;-76
2022/05/08 02:46:38;;;;;;;13.00;11.85;;;9.90;99.90;;;;;;5059520;28;20206;-77
2022/05/08 02:49:03;;;;;;;12.43;11.32;;;9.90;99.90;;;;;;5060520;28;20218;-77
2022/05/08 02:51:29;;;;;;;13.20;11.88;;;9.90;99.90;;;;;;5057712;28;20662;-77
2022/05/08 02:53:54;;;;;;;13.75;12.35;;;9.90;99.90;;;;;;5058613;28;20198;-76
2022/05/08 02:59:04;;;;;;;12.85;11.65;;;9.80;99.90;;;;;;5055859;28;20207;-77
2022/05/08 03:01:30;;;;;;;13.77;12.55;;;9.70;99.90;;;;;;5057435;28;20172;-77
2022/05/08 03:03:55;;;;;;;13.18;12.02;;;9.80;99.90;;;;;;5061441;28;20194;-77
2022/05/08 03:06:21;;;;;;;13.73;12.43;;;9.70;99.90;;;;;;5059735;28;20298;-77
2022/05/08 03:08:50;;;;;;;15.55;13.55;;;9.70;99.90;;;;;;5057888;28;20239;-77
2022/05/08 03:11:29;;;;;;;13.73;12.52;;;9.70;99.90;;;;;;5040207;28;20214;-77
2022/05/08 03:13:57;;;;;;;13.82;12.43;;;9.70;99.90;;;;;;5056347;28;20199;-77
2022/05/08 03:16:23;;;;;;;15.27;13.77;;;9.70;99.90;;;;;;5055549;28;20282;-77
2022/05/08 03:18:50;;;;;;;15.40;14.00;;;9.70;99.90;;;;;;5044329;28;20171;-77
2022/05/08 03:21:16;;;;;;;15.48;13.85;;;9.70;99.90;;;;;;5058382;28;20639;-77
2022/05/08 03:23:44;;;;;;;16.25;14.70;;;9.70;99.90;;;;;;5042968;28;20176;-77
2022/05/08 03:26:12;;;;;;;15.82;14.18;;;9.60;99.90;;;;;;5053803;28;20211;-77
2022/05/08 03:28:38;;;;;;;16.00;13.57;;;9.60;99.90;;;;;;5055448;28;20647;-78
2022/05/08 03:31:04;;;;;;;13.98;12.68;;;9.60;99.90;;;;;;5042262;28;20191;-77
2022/05/08 03:33:35;;;;;;;14.88;13.50;;;9.60;99.90;;;;;;5052138;28;20216;-77
2022/05/08 03:36:01;;;;;;;15.35;13.98;;;9.60;99.90;;;;;;5059917;28;20191;-77
2022/05/08 03:38:27;;;;;;;14.65;13.25;;;9.50;99.90;;;;;;5058851;28;20168;-77
2022/05/08 03:40:54;;;;;;;14.38;12.98;;;9.60;99.90;;;;;;5060494;28;20178;-77
2022/05/08 03:43:21;;;;;;;14.77;13.48;;;9.60;99.90;;;;;;5053471;28;20188;-77
2022/05/08 03:45:49;;;;;;;13.80;12.55;;;9.60;99.90;;;;;;5059684;28;20266;-77
2022/05/08 03:48:19;;;;;;;12.23;11.02;;;9.60;99.90;;;;;;5037229;28;20230;-77
2022/05/08 03:50:44;;;;;;;11.73;10.63;;;9.60;99.90;;;;;;5037558;28;20177;-77
2022/05/08 03:53:10;;;;;;;13.98;12.68;;;9.70;99.90;;;;;;5041568;28;20634;-76
2022/05/08 03:55:36;;;;;;;12.43;11.32;;;9.60;99.90;;;;;;5058714;28;20258;-80
2022/05/08 03:58:02;;;;;;;12.55;11.45;;;9.60;99.90;;;;;;5050156;28;20218;-77
2022/05/08 04:00:28;;;;;;;12.35;11.25;;;9.60;99.90;;;;;;5060053;28;20172;-77
2022/05/08 04:02:54;;;;;;;12.68;11.57;;;9.60;99.90;;;;;;5058003;28;20677;-77
2022/05/08 04:05:20;;;;;;;12.45;11.35;;;9.60;99.90;;;;;;5059678;28;20215;-77
2022/05/08 04:07:46;;;;;;;12.32;11.32;;;9.60;99.90;;;;;;5054575;28;20195;-77
2022/05/08 04:10:13;;;;;;;12.88;11.68;;;9.60;99.90;;;;;;5055265;28;20253;-77
2022/05/08 04:12:38;;;;;;;12.98;11.77;;;9.70;99.90;;;;;;5057972;28;20199;-78
2022/05/08 04:16:15;;;;;;;13.25;12.05;;;9.70;99.90;;;;;;5059361;28;20203;-78
2022/05/08 04:17:51;;;;;;;12.20;11.10;;;9.70;99.90;;;;;;5055680;28;20206;-77
2022/05/08 04:20:17;;;;;;;13.20;11.98;;;9.70;99.90;;;;;;5059622;28;20526;-77
2022/05/08 04:25:49;;;;;;;12.90;11.80;;;9.80;99.90;;;;;;4978114;28;20178;-77
2022/05/08 04:28:16;;;;;;;12.38;11.07;;;9.80;99.90;;;;;;4957233;28;20716;-77
2022/05/08 04:30:42;;;;;;;11.80;10.80;;;9.90;99.90;;;;;;5020002;28;20179;-77
2022/05/08 04:33:07;;;;;;;11.80;10.80;;;10.00;99.90;;;;;;5038131;28;20255;-76
2022/05/08 04:35:33;;;;;;;12.48;11.35;;;10.00;99.90;;;;;;5061329;28;20183;-77
2022/05/08 04:37:58;;;;;;;13.95;12.52;;;10.10;99.90;;;;;;5058278;28;20188;-77
2022/05/08 04:40:24;;;;;;;13.35;12.25;;;10.10;99.90;;;;;;5058998;28;20537;-77
2022/05/08 04:42:50;;;;;;;12.30;11.30;;;10.10;99.90;;;;;;5039430;28;20552;-76
2022/05/08 04:45:15;;;;;;;13.40;11.65;;;10.20;99.90;;;;;;5057830;28;20184;-77
2022/05/08 04:47:41;;;;;;;12.48;11.38;;;10.20;99.90;;;;;;5057829;28;20223;-77
2022/05/08 04:50:07;;;;;;;12.38;11.20;;;10.30;99.90;;;;;;5041084;28;20615;-77
2022/05/08 04:52:32;;;;;;;12.32;11.13;;;10.40;99.90;;;;;;5058768;28;20180;-77
2022/05/08 04:54:59;;;;;;;11.90;10.90;;;10.50;99.90;;;;;;5058039;28;20196;-77
2022/05/08 04:57:25;;;;;;;11.73;10.60;;;10.60;99.90;;;;;;5056784;28;20210;-76
2022/05/08 04:59:50;;;;;;;11.77;10.77;;;10.70;99.90;;;;;;5055001;28;20172;-76
2022/05/08 05:02:16;;;;;;;11.77;10.77;;;10.70;99.90;;;;;;5056969;28;20207;-77
2022/05/08 05:04:41;;;;;;;11.65;10.45;;;10.80;99.90;;;;;;5038422;28;20179;-77
2022/05/08 05:07:08;;;;;;;11.68;10.77;;;10.80;99.90;;;;;;5056742;28;20196;-78
2022/05/08 05:09:34;;;;;;;12.77;11.75;;;11.00;99.90;;;;;;5060326;28;20179;-77
2022/05/08 05:12:03;;;;;;;12.23;11.23;;;11.00;99.90;;;;;;5057401;28;20704;-77
2022/05/08 05:14:31;;;;;;;12.43;11.35;;;11.10;99.90;;;;;;5059615;28;20222;-77
2022/05/08 05:16:57;;;;;;;12.35;11.13;;;11.20;99.90;;;;;;5058678;28;20192;-76
2022/05/08 05:19:22;;;;;;;12.05;10.75;;;11.30;99.90;;;;;;5038993;28;20206;-77
2022/05/08 05:21:48;;;;;;;10.80;9.80;;;11.30;99.90;;;;;;5058754;28;20172;-78
2022/05/08 05:24:14;;;;;;;11.13;10.23;;;11.40;99.90;;;;;;5060389;28;20544;-77
2022/05/08 05:26:39;;;;;;;10.57;9.65;;;11.60;99.90;;;;;;5061607;28;20211;-77
2022/05/08 05:29:05;;;;;;;10.02;9.23;;;11.80;99.90;;;;;;5060085;28;20194;-77
2022/05/08 05:31:30;;;;;;;10.65;9.70;;;11.90;99.90;;;;;;5059442;28;20180;-77
2022/05/08 05:33:56;;;;;;;10.68;9.88;;;11.90;99.90;;;;;;5057566;28;20196;-77
2022/05/08 05:36:22;;;;;;;11.57;10.57;;;12.10;99.90;;;;;;5059396;28;20701;-77
2022/05/08 05:38:47;;;;;;;11.15;10.15;;;12.20;99.90;;;;;;5061763;28;20172;-76
2022/05/08 05:41:13;;;;;;;11.38;10.18;;;12.20;99.90;;;;;;5061531;28;20180;-77
2022/05/08 05:43:39;;;;;;;11.65;10.65;;;12.20;99.90;;;;;;5061114;28;20297;-77
2022/05/08 05:48:49;;;;;;;11.00;10.00;;;12.40;99.90;;;;;;5060446;28;20690;-77
2022/05/08 05:51:14;;;;;;;12.38;11.27;;;12.40;99.90;;;;;;5059081;28;20172;-78
2022/05/08 05:53:40;;;;;;;10.57;9.68;;;12.50;99.90;;;;;;5061715;28;20552;-76
2022/05/08 05:56:05;;;;;;;11.90;10.68;;;12.60;99.90;;;;;;5043391;28;20223;-80
2022/05/08 05:58:31;;;;;;;11.27;10.27;;;12.60;99.90;;;;;;5054563;28;20191;-77
2022/05/08 06:00:57;;;;;;;12.20;11.10;;;12.70;99.90;;;;;;5061447;28;20546;-77
2022/05/08 06:03:23;;;;;;;11.07;10.18;;;12.80;99.90;;;;;;5060035;28;20196;-77
2022/05/08 06:05:51;;;;;;;11.18;10.30;;;12.90;99.90;;;;;;5056170;28;20187;-77
2022/05/08 06:08:17;;;;;;;11.43;10.43;;;13.00;99.90;;;;;;5057783;28;20202;-78
2022/05/08 06:10:45;;;;;;;11.73;10.60;;;13.20;99.90;;;;;;5057118;28;20184;-77
2022/05/08 06:13:12;;;;;;;10.88;9.88;;;13.20;99.90;;;;;;5054128;28;20188;-77
2022/05/08 06:15:38;;;;;;;10.75;9.70;;;13.40;99.90;;;;;;5046919;28;20560;-77
2022/05/08 06:18:07;;;;;;;13.00;11.23;;;13.60;99.90;;;;;;5053300;28;20213;-77
2022/05/08 06:20:32;;;;;;;11.07;10.13;;;13.90;99.90;;;;;;5057939;28;20168;-79
2022/05/08 06:22:58;;;;;;;10.93;9.93;;;14.10;99.90;;;;;;5054105;28;20180;-77
2022/05/08 06:25:24;;;;;;;11.00;10.02;;;14.30;99.90;;;;;;5054109;28;20175;-77
2022/05/08 06:27:50;;;;;;;9.57;8.80;;;14.60;99.90;;;;;;5054409;28;20196;-77
2022/05/08 06:30:15;;;;;;;10.30;9.50;;;14.80;99.90;;;;;;5049429;28;20180;-77
2022/05/08 06:32:41;;;;;;;9.80;9.07;;;14.90;99.90;;;;;;5050568;28;20677;-76
2022/05/08 06:35:07;;;;;;;10.40;9.40;;;14.90;99.90;;;;;;5051975;28;20290;-77
2022/05/08 06:37:33;;;;;;;10.57;9.68;;;14.90;99.90;;;;;;5047322;28;20613;-75
2022/05/08 06:39:59;;;;;;;10.35;9.38;;;14.90;99.90;;;;;;5045398;28;20183;-82
2022/05/08 06:42:24;;;;;;;10.00;9.00;;;14.70;99.90;;;;;;5053158;28;20246;-76
2022/05/08 06:44:50;;;;;;;10.45;9.38;;;14.80;99.90;;;;;;5046921;28;20228;-76
2022/05/08 06:47:16;;;;;;;10.30;9.50;;;15.10;99.90;;;;;;5046856;28;20681;-76
2022/05/08 06:49:41;;;;;;;10.23;9.25;;;15.10;99.90;;;;;;5049883;28;20262;-77
2022/05/08 06:52:07;;;;;;;11.07;10.05;;;15.30;99.90;;;;;;5049137;28;20379;-76
2022/05/08 06:54:33;;;;;;;9.25;8.45;;;15.50;99.90;;;;;;5050463;28;20207;-76
2022/05/08 06:56:59;;;;;;;9.35;8.55;;;15.70;99.90;;;;;;5044793;28;20242;-77
2022/05/08 07:02:11;;;;;;;10.20;9.30;;;16.00;99.90;;;;;;5052292;28;20673;-76
2022/05/08 07:04:38;;;;;;;9.27;8.50;;;16.10;99.90;;;;;;5047797;28;20259;-76
2022/05/08 07:07:04;;;;;;;9.77;8.90;;;16.40;99.90;;;;;;5048167;28;20675;-76
2022/05/08 07:09:30;;;;;;;10.07;9.20;;;16.50;99.90;;;;;;5050902;28;20190;-79
2022/05/08 07:11:55;;;;;;;9.82;8.93;;;16.50;99.90;;;;;;5051553;28;20674;-76
2022/05/08 07:14:21;;;;;;;10.48;9.52;;;16.50;99.90;;;;;;5050413;28;20215;-76
2022/05/08 07:16:47;;;;;;;9.32;8.52;;;16.80;99.90;;;;;;5048408;28;20199;-76
2022/05/08 07:19:12;;;;;;;9.70;9.00;;;17.10;99.90;;;;;;5049689;28;20182;-77
2022/05/08 07:21:38;;;;;;;10.77;9.88;;;17.20;99.90;;;;;;5049569;28;20180;-76
2022/05/08 07:24:04;;;;;;;10.63;9.73;;;17.40;99.90;;;;;;5052280;28;20184;-76
2022/05/08 07:26:31;;;;;;;9.45;8.75;;;17.60;99.90;;;;;;5049775;28;20201;-76
2022/05/08 07:28:56;;;;;;;9.82;9.02;;;17.70;99.90;;;;;;5050772;28;20180;-77
2022/05/08 07:31:22;;;;;;;10.05;9.10;;;17.60;99.90;;;;;;5054862;28;20178;-76
2022/05/08 07:36:12;;;;;;;9.23;8.52;;;17.50;99.90;;;;;;5053151;28;20204;-76
2022/05/08 07:36:34;;;;;;;9.30;8.45;;;17.60;99.90;;;;;;5052984;28;20218;-76
2022/05/08 07:38:59;;;;;;;9.85;8.95;;;17.80;99.90;;;;;;5053365;28;20172;-76
2022/05/08 07:41:25;;;;;;;10.50;9.43;;;17.90;99.90;;;;;;5056954;28;20543;-75
2022/05/08 07:43:51;;;;;;;9.32;8.52;;;17.70;99.90;;;;;;5048028;28;20176;-78
2022/05/08 07:46:16;;;;;;;9.48;8.77;;;17.90;99.90;;;;;;5053931;28;20206;-76
2022/05/08 07:48:42;;;;;;;9.70;8.95;;;18.00;99.90;;;;;;5053775;28;20700;-76
2022/05/08 07:51:07;;;;;;;9.93;9.13;;;18.10;99.90;;;;;;5053329;28;20788;-76
2022/05/08 07:53:33;;;;;;;9.77;8.80;;;18.30;99.90;;;;;;5053486;28;20581;-76
2022/05/08 07:56:00;;;;;;;10.07;9.18;;;18.30;99.90;;;;;;5051230;28;20191;-76
2022/05/08 07:58:32;;;;;;;9.80;8.82;;;18.40;99.90;;;;;;5054675;28;20188;-76
2022/05/08 08:01:00;;;;;;;9.52;8.73;;;18.60;99.90;;;;;;5056498;28;20269;-76
2022/05/08 08:03:29;;;;;;;10.55;9.75;;;19.00;99.90;;;;;;5036180;28;20208;-75
2022/05/08 08:05:56;;;;;;;9.75;8.75;;;19.30;99.90;;;;;;5051734;28;20185;-76
2022/05/08 08:08:23;;;;;;;9.57;8.82;;;19.20;99.90;;;;;;5052115;28;20201;-76
2022/05/08 08:10:52;;;;;;;10.15;9.18;;;19.40;99.90;;;;;;5054734;28;20172;-76
2022/05/08 08:13:18;;;;;;;10.48;9.48;;;19.60;99.90;;;;;;5055615;28;20184;-75
2022/05/08 08:15:45;;;;;;;9.73;8.95;;;19.90;99.90;;;;;;5037302;28;20614;-76
2022/05/08 08:18:12;;;;;;;8.75;8.13;;;20.20;99.90;;;;;;5049528;28;20188;-76
2022/05/08 08:20:38;;;;;;;9.20;8.40;;;20.30;99.90;;;;;;5055619;28;20180;-77
2022/05/08 08:23:04;;;;;;;9.25;8.43;;;20.50;99.90;;;;;;5054176;28;20624;-77
2022/05/08 08:25:30;;;;;;;8.52;7.82;;;20.60;99.90;;;;;;5033026;28;20255;-76
2022/05/08 08:27:56;;;;;;;9.13;8.43;;;20.80;99.90;;;;;;5053498;28;20204;-76
2022/05/08 08:30:22;;;;;;;9.88;8.90;;;21.20;99.90;;;;;;5056330;28;20223;-76
2022/05/08 08:32:47;;;;;;;8.90;8.25;;;21.50;99.90;;;;;;5050312;28;20176;-76
2022/05/08 08:35:13;;;;;;;9.02;8.20;;;21.80;99.90;;;;;;5051886;28;20571;-76
2022/05/08 08:37:39;;;;;;;9.32;8.52;;;21.90;99.90;;;;;;5049480;28;20197;-76
2022/05/08 08:40:05;;;;;;;9.68;8.68;;;21.60;99.90;;;;;;5030757;28;20188;-76
2022/05/08 08:42:31;;;;;;;10.25;9.32;;;21.70;99.90;;;;;;5053039;28;20188;-76
2022/05/08 08:48:15;;;;;;;8.73;7.97;;;21.80;99.90;;;;;;5050895;28;20268;-77
2022/05/08 08:50:42;;;;;;;9.07;8.15;;;21.40;99.90;;;;;;5050707;28;20257;-77
2022/05/08 08:53:07;;;;;;;8.75;8.02;;;21.50;99.90;;;;;;5035857;28;20188;-76
2022/05/08 08:55:33;;;;;;;8.13;7.53;;;21.80;99.90;;;;;;5052338;28;20527;-76
2022/05/08 08:58:00;;;;;;;7.05;6.55;;;22.40;99.90;;;;;;5050758;28;20222;-77
2022/05/08 09:00:26;;;;;;;8.88;8.18;;;22.90;99.90;;;;;;5050333;28;20179;-76
2022/05/08 09:02:53;;;;;;;8.15;7.35;;;23.20;99.90;;;;;;5054035;28;20221;-77
2022/05/08 09:05:19;;;;;;;8.02;7.43;;;23.40;99.90;;;;;;5049914;28;20175;-77
2022/05/08 09:07:56;;;;;;;7.53;6.95;;;23.50;99.90;;;;;;5050394;28;20285;-76
2022/05/08 09:10:23;;;;;;;7.40;6.80;;;23.60;99.90;;;;;;5048937;28;20632;-77
2022/05/08 09:12:52;;;;;;;7.82;7.13;;;23.70;99.90;;;;;;5050095;28;20176;-77
2022/05/08 09:15:27;;;;;;;7.72;6.88;;;23.70;99.90;;;;;;5050526;28;20230;-76
2022/05/08 09:18:01;;;;;;;6.93;6.40;;;23.70;99.90;;;;;;5051890;28;20191;-77
2022/05/08 09:20:29;;;;;;;7.20;6.70;;;23.70;99.90;;;;;;5048388;28;20180;-77
2022/05/08 09:23:02;;;;;;;7.50;6.57;;;23.90;99.90;;;;;;5041947;28;20644;-77
2022/05/08 09:25:53;;;;;;;7.03;6.53;;;23.80;99.90;;;;;;5050190;28;20179;-77
2022/05/08 09:28:30;;;;;;;5.85;5.45;;;24.40;99.90;;;;;;5047635;28;20182;-77
2022/05/08 09:31:10;;;;;;;4.95;4.50;;;24.90;99.90;;;;;;5038946;28;20260;-77
2022/05/08 09:33:46;;;;;;;5.13;4.82;;;25.60;99.90;;;;;;5053376;28;20690;-77
2022/05/08 09:36:25;;;;;;;5.35;4.97;;;25.80;99.90;;;;;;5051472;28;20563;-77
2022/05/08 09:38:57;;;;;;;5.13;4.75;;;26.20;99.90;;;;;;5049148;28;20546;-77
2022/05/08 09:41:38;;;;;;;4.82;4.53;;;26.40;99.90;;;;;;5048808;28;20219;-77
2022/05/08 09:44:11;;;;;;;4.85;4.45;;;26.80;97.40;;;;;;5051081;28;20319;-77
2022/05/08 09:46:38;;;;;;;4.30;4.10;;;26.60;95.90;;;;;;5047388;28;20679;-77
2022/05/08 09:49:06;;;;;;;4.78;4.30;;;26.70;95.70;;;;;;5035857;28;20274;-77
2022/05/08 09:51:33;;;;;;;4.78;4.45;;;26.60;94.40;;;;;;5034697;28;20321;-77
2022/05/08 09:53:59;;;;;;;4.53;4.22;;;26.00;92.50;;;;;;5051497;28;20574;-77
2022/05/08 09:56:25;;;;;;;5.38;4.88;;;25.60;92.80;;;;;;5048534;28;20196;-77
2022/05/08 09:58:51;;;;;;;5.13;4.72;;;25.90;92.10;;;;;;5064698;28;20676;-77
2022/05/08 10:01:17;;;;;;;4.93;4.47;;;26.50;93.70;;;;;;5052402;28;20199;-77
2022/05/08 10:03:46;;;;;;;4.50;4.10;;;27.10;92.40;;;;;;5048081;28;20641;-77
2022/05/08 10:06:13;;;;;;;4.00;3.70;;;27.60;90.60;;;;;;5045323;28;20191;-77
2022/05/08 10:08:39;;;;;;;5.53;4.15;;;28.20;87.60;;;;;;5053340;28;20263;-77
2022/05/08 10:13:57;;;;;;;4.40;4.10;;;28.40;87.30;;;;;;5051591;28;20221;-75
2022/05/08 10:16:45;;;;;;;3.45;3.25;;;28.40;83.00;;;;;;5049457;28;20195;-74
2022/05/08 10:19:30;;;;;;;4.35;4.05;;;28.20;79.90;;;;;;5049763;28;20187;-74
2022/05/08 10:22:06;;;;;;;3.65;3.45;;;28.40;80.10;;;;;;5041767;28;20276;-74
2022/05/08 10:24:35;;;;;;;4.95;4.65;;;28.20;79.20;;;;;;5050642;28;20179;-75
2022/05/08 10:27:20;;;;;;;4.18;3.78;;;28.20;77.30;;;;;;5048035;28;20678;-76
2022/05/08 10:29:55;;;;;;;3.63;3.42;;;28.40;74.70;;;;;;5051109;28;20171;-77
2022/05/08 10:32:35;;;;;;;4.40;4.10;;;28.00;74.60;;;;;;5047724;28;20174;-77
2022/05/08 10:35:14;;;;;;;5.28;4.88;;;27.60;76.70;;;;;;5051417;28;20230;-76
2022/05/08 10:37:46;;;;;;;4.68;4.35;;;27.70;79.30;;;;;;5053449;28;20206;-77
2022/05/08 10:40:23;;;;;;;5.30;3.65;;;27.80;80.10;;;;;;5053557;28;20202;-75
2022/05/08 10:42:49;;;;;;;5.22;4.30;;;28.00;80.10;;;;;;5046111;28;20172;-75
2022/05/08 10:45:37;;;;;;;4.05;3.72;;;28.40;75.10;;;;;;5049516;28;20190;-75
2022/05/08 10:48:08;;;;;;;3.70;3.50;;;28.70;73.80;;;;;;5051301;28;20675;-75
2022/05/08 10:50:34;;;;;;;4.60;4.28;;;28.90;74.90;;;;;;5047372;28;20184;-74
2022/05/08 10:53:00;;;;;;;4.72;4.43;;;28.50;72.10;;;;;;5048324;28;20182;-75
2022/05/08 10:55:27;;;;;;;4.00;3.80;;;28.50;73.90;;;;;;5049534;28;20290;-75
2022/05/08 10:57:54;;;;;;;4.15;3.67;;;29.20;74.00;;;;;;5056040;28;20212;-75
2022/05/08 11:00:28;;;;;;;4.13;3.83;;;30.20;73.20;;;;;;5047677;28;20670;-75
2022/05/08 11:02:55;;;;;;;4.78;4.20;;;30.80;66.90;;;;;;5061931;28;20191;-75
2022/05/08 11:05:47;;;;;;;4.13;3.88;;;31.00;66.00;;;;;;5051920;28;20171;-75
2022/05/08 11:08:24;;;;;;;3.97;3.67;;;30.50;67.60;;;;;;5050937;28;20294;-75
2022/05/08 11:10:58;;;;;;;4.55;4.03;;;30.50;67.50;;;;;;5051889;28;20217;-75
2022/05/08 11:13:26;;;;;;;4.00;3.60;;;31.00;66.80;;;;;;5053078;28;20171;-75
2022/05/08 11:15:52;;;;;;;4.88;4.32;;;30.90;65.60;;;;;;5053685;28;20164;-73
2022/05/08 11:18:26;;;;;;;4.22;3.92;;;30.50;66.70;;;;;;5051683;28;20214;-75
2022/05/08 11:21:03;;;;;;;3.83;3.53;;;30.40;65.70;;;;;;5049635;28;20203;-75
2022/05/08 11:23:36;;;;;;;3.67;3.47;;;30.20;65.70;;;;;;5054047;28;20171;-75
2022/05/08 11:26:08;;;;;;;4.00;3.70;;;30.00;67.70;;;;;;5053206;28;20592;-76
2022/05/08 11:28:35;;;;;;;5.25;3.80;;;29.70;66.40;;;;;;5052738;28;20617;-74
2022/05/08 11:31:13;;;;;;;4.22;3.85;;;29.90;66.80;;;;;;5054306;28;20681;-75
2022/05/08 11:36:26;;;;;;;4.60;4.20;;;29.40;66.20;;;;;;5054431;28;20701;-75
2022/05/08 11:38:55;;;;;;;4.32;4.03;;;29.90;64.30;;;;;;5053078;28;20176;-75
2022/05/08 11:41:22;;;;;;;4.70;4.35;;;30.50;62.00;;;;;;5044942;28;20207;-75
2022/05/08 11:43:59;;;;;;;4.25;3.95;;;30.70;62.40;;;;;;5065269;28;20183;-75
2022/05/08 11:46:34;;;;;;;3.50;3.20;;;30.10;65.80;;;;;;5054646;28;20547;-75
2022/05/08 11:49:00;;;;;;;3.88;3.65;;;30.60;63.20;;;;;;5054529;28;20217;-75
2022/05/08 11:51:38;;;;;;;3.55;3.35;;;31.00;61.30;;;;;;5047628;28;20742;-75
2022/05/08 11:54:03;;;;;;;3.88;3.67;;;31.00;60.00;;;;;;5051961;28;20251;-75
2022/05/08 11:56:30;;;;;;;3.28;2.97;;;30.90;60.60;;;;;;5055771;28;20191;-74
2022/05/08 11:58:58;;;;;;;3.60;3.40;;;31.20;60.00;;;;;;5049273;28;20682;-75
2022/05/08 12:01:28;;;;;;;3.25;3.10;;;31.80;59.50;;;;;;5052570;28;20217;-75
2022/05/08 12:03:55;;;;;;;3.65;3.42;;;31.50;58.90;;;;;;5049359;28;20218;-75
2022/05/08 12:06:22;;;;;;;3.20;2.95;;;31.10;58.00;;;;;;5045768;28;20195;-76
2022/05/08 12:08:48;;;;;;;3.30;3.00;;;31.00;58.20;;;;;;5047618;28;20607;-75
2022/05/08 12:11:33;;;;;;;3.28;3.08;;;31.60;58.30;;;;;;5050160;28;20175;-75
2022/05/08 12:14:06;;;;;;;3.75;3.45;;;31.70;58.60;;;;;;5034844;28;20199;-76
2022/05/08 12:16:34;;;;;;;3.53;3.28;;;30.60;57.30;;;;;;5044170;28;20192;-75
2022/05/08 12:19:13;;;;;;;3.50;3.30;;;30.80;58.90;;;;;;5049734;28;20182;-75
2022/05/08 12:21:39;;;;;;;3.67;3.35;;;31.10;56.90;;;;;;5053645;28;20536;-75
2022/05/08 12:24:17;;;;;;;3.80;3.50;;;31.10;57.70;;;;;;5050305;28;20207;-76
2022/05/08 12:26:43;;;;;;;4.15;3.05;;;30.80;57.40;;;;;;5054651;28;20198;-75
2022/05/08 12:29:21;;;;;;;3.40;3.03;;;30.90;57.50;;;;;;5054727;28;20274;-75
2022/05/08 12:31:50;;;;;;;3.80;3.55;;;30.80;57.30;;;;;;5051820;28;20179;-75
2022/05/08 12:34:16;;;;;;;5.43;3.13;;;30.80;58.10;;;;;;5054291;28;20666;-75
2022/05/08 12:36:42;;;;;;;3.55;3.25;;;30.90;58.40;;;;;;5047109;28;20186;-74
2022/05/08 12:39:09;;;;;;;3.10;2.92;;;30.80;59.10;;;;;;5051783;28;20653;-76
2022/05/08 12:41:36;;;;;;;3.53;3.20;;;31.20;57.00;;;;;;5054771;28;20174;-74
2022/05/08 12:44:02;;;;;;;6.15;3.00;;;30.60;57.00;;;;;;5049452;28;20253;-75
2022/05/08 12:46:28;;;;;;;5.22;3.30;;;30.50;59.10;;;;;;5048894;28;20562;-76
2022/05/08 12:49:00;;;;;;;3.42;3.13;;;30.90;57.20;;;;;;5049073;28;20263;-75
2022/05/08 12:51:26;;;;;;;3.72;3.03;;;31.20;56.80;;;;;;5051582;28;20233;-76
2022/05/08 12:53:52;;;;;;;3.30;3.10;;;31.50;55.30;;;;;;5052533;28;20207;-75
2022/05/08 12:56:19;;;;;;;3.42;3.22;;;31.40;55.20;;;;;;5047650;28;20223;-76
2022/05/08 13:01:29;;;;;;;3.60;3.30;;;33.90;51.70;;;;;;5052194;28;20241;-74
2022/05/08 13:03:54;;;;;;;3.40;3.10;;;35.60;50.60;;;;;;5049071;28;20582;-75
2022/05/08 13:06:20;;;;;;;4.05;3.72;;;35.80;49.10;;;;;;5048318;28;20191;-75